createdAt,value
2023-05-16T00:00:38.053Z,71.94
2023-05-16T00:03:05.435Z,71.95
2023-05-16T00:05:33.103Z,72.63
2023-05-16T00:07:59.958Z,72.57
2023-05-16T00:10:27.077Z,72.63
2023-05-16T00:12:54.076Z,72.75
2023-05-16T00:15:20.827Z,72.47
2023-05-16T00:17:47.891Z,72.31
2023-05-16T00:20:17.218Z,72.30
2023-05-16T00:22:44.324Z,72.21
2023-05-16T00:25:11.259Z,72.51
2023-05-16T00:27:37.998Z,72.53
2023-05-16T00:30:05.344Z,72.62
2023-05-16T00:32:32.655Z,72.63
2023-05-16T00:35:00.895Z,72.49
2023-05-16T00:37:27.824Z,72.84
2023-05-16T00:39:54.734Z,72.66
2023-05-16T00:42:21.657Z,72.26
2023-05-16T00:44:48.904Z,72.17
2023-05-16T00:47:15.876Z,72.74
2023-05-16T00:49:42.858Z,72.92
2023-05-16T00:52:09.882Z,73.04
2023-05-16T00:54:36.913Z,73.45
2023-05-16T00:57:04.986Z,73.06
2023-05-16T00:59:31.729Z,73.03
2023-05-16T01:01:58.747Z,73.09
2023-05-16T01:04:25.843Z,73.23
2023-05-16T01:06:56.194Z,72.53
2023-05-16T01:09:23.333Z,73.07
2023-05-16T01:12:15.033Z,73.32
2023-05-16T01:15:04.928Z,73.79
2023-05-16T01:18:01.051Z,73.12
2023-05-16T01:21:13.477Z,74.50
2023-05-16T01:24:11.148Z,74.04
2023-05-16T01:26:37.994Z,73.54
2023-05-16T01:29:07.593Z,73.20
2023-05-16T01:31:35.570Z,73.38
2023-05-16T01:34:02.418Z,73.34
2023-05-16T01:36:37.189Z,73.58
2023-05-16T01:39:33.889Z,74.26
2023-05-16T01:42:06.629Z,74.10
2023-05-16T01:44:47.011Z,74.53
2023-05-16T01:47:16.585Z,73.98
2023-05-16T01:49:51.511Z,74.52
2023-05-16T01:52:28.333Z,74.23
2023-05-16T01:54:56.828Z,73.81
2023-05-16T01:57:26.475Z,74.17
2023-05-16T01:59:53.582Z,73.62
2023-05-16T02:02:20.963Z,73.69
2023-05-16T02:04:47.790Z,73.81
2023-05-16T02:07:15.879Z,73.83
2023-05-16T02:09:45.140Z,73.30
2023-05-16T02:12:11.875Z,72.88
2023-05-16T02:14:38.618Z,72.88
2023-05-16T02:17:06.596Z,73.19
2023-05-16T02:19:33.442Z,73.31
2023-05-16T02:22:00.828Z,73.76
2023-05-16T02:24:27.539Z,73.46
2023-05-16T02:26:55.743Z,74.01
2023-05-16T02:29:22.691Z,73.39
2023-05-16T02:31:49.563Z,73.00
2023-05-16T02:34:16.751Z,73.20
2023-05-16T02:36:43.640Z,73.26
2023-05-16T02:39:11.289Z,73.07
2023-05-16T02:41:38.077Z,73.73
2023-05-16T02:44:04.986Z,74.58
2023-05-16T02:46:34.498Z,74.55
2023-05-16T02:49:01.879Z,74.37
2023-05-16T02:51:29.054Z,74.60
2023-05-16T02:53:59.975Z,74.69
2023-05-16T02:56:27.591Z,72.51
2023-05-16T02:58:55.013Z,73.09
2023-05-16T03:01:22.104Z,73.77
2023-05-16T03:03:49.119Z,73.76
2023-05-16T03:06:16.219Z,74.34
2023-05-16T03:08:42.954Z,74.50
2023-05-16T03:11:09.729Z,74.16
2023-05-16T03:13:36.580Z,74.27
2023-05-16T03:16:03.922Z,74.34
2023-05-16T03:18:30.976Z,73.88
2023-05-16T03:20:58.140Z,73.84
2023-05-16T03:23:24.865Z,74.10
2023-05-16T03:25:51.549Z,74.42
2023-05-16T03:28:20.987Z,73.68
2023-05-16T03:30:47.729Z,73.79
2023-05-16T03:33:14.429Z,73.91
2023-05-16T03:35:41.389Z,74.18
2023-05-16T03:38:08.214Z,74.14
2023-05-16T03:40:35.348Z,74.55
2023-05-16T03:43:02.019Z,74.89
2023-05-16T03:45:30.165Z,74.80
2023-05-16T03:47:57.444Z,74.83
2023-05-16T03:50:24.179Z,74.93
2023-05-16T03:52:51.826Z,75.46
2023-05-16T03:55:18.505Z,75.08
2023-05-16T03:57:46.385Z,75.45
2023-05-16T04:00:13.662Z,75.10
2023-05-16T04:02:41.056Z,75.34
2023-05-16T04:05:09.424Z,75.00
2023-05-16T04:07:39.180Z,75.32
2023-05-16T04:10:06.554Z,75.38
2023-05-16T04:12:33.230Z,75.14
2023-05-16T04:14:59.913Z,75.24
2023-05-16T04:17:26.657Z,75.75
2023-05-16T04:19:53.368Z,75.92
2023-05-16T04:22:22.848Z,75.93
2023-05-16T04:24:49.596Z,76.32
2023-05-16T04:27:16.271Z,76.18
2023-05-16T04:29:43.100Z,76.12
2023-05-16T04:32:11.004Z,76.51
2023-05-16T04:34:39.758Z,76.35
2023-05-16T04:37:07.493Z,74.65
2023-05-16T04:39:35.710Z,73.32
2023-05-16T04:42:03.675Z,73.18
2023-05-16T04:44:30.596Z,73.51
2023-05-16T04:46:57.691Z,74.15
2023-05-16T04:49:24.590Z,74.14
2023-05-16T04:51:51.326Z,74.21
2023-05-16T04:54:18.132Z,74.74
2023-05-16T04:56:44.849Z,75.23
2023-05-16T04:59:11.599Z,75.39
2023-05-16T05:01:38.299Z,76.16
2023-05-16T05:04:05.070Z,77.26
2023-05-16T05:06:32.034Z,77.13
2023-05-16T05:08:58.698Z,76.65
2023-05-16T05:11:27.122Z,77.76
2023-05-16T05:13:53.831Z,77.85
2023-05-16T05:16:22.905Z,77.12
2023-05-16T05:18:49.777Z,77.98
2023-05-16T05:21:16.558Z,77.91
2023-05-16T05:23:43.267Z,78.11
2023-05-16T05:26:10.056Z,78.32
2023-05-16T05:28:37.892Z,78.89
2023-05-16T05:31:08.102Z,78.87
2023-05-16T05:33:34.917Z,78.91
2023-05-16T05:36:03.872Z,78.88
2023-05-16T05:38:30.856Z,79.44
2023-05-16T05:40:57.684Z,79.78
2023-05-16T05:43:24.401Z,79.66
2023-05-16T05:45:51.180Z,80.43
2023-05-16T05:48:17.911Z,80.30
2023-05-16T05:50:44.589Z,80.36
2023-05-16T05:53:11.317Z,81.01
2023-05-16T05:55:38.040Z,80.31
2023-05-16T05:58:07.062Z,80.67
2023-05-16T06:00:34.018Z,79.79
2023-05-16T06:03:00.808Z,80.32
2023-05-16T06:05:27.710Z,79.79
2023-05-16T06:07:54.618Z,79.64
2023-05-16T06:10:21.455Z,80.53
2023-05-16T06:12:48.106Z,80.29
2023-05-16T06:15:14.776Z,79.18
2023-05-16T06:17:42.040Z,79.20
2023-05-16T06:20:09.054Z,78.83
2023-05-16T06:22:36.002Z,79.47
2023-05-16T06:25:02.763Z,80.06
2023-05-16T06:27:29.473Z,79.89
2023-05-16T06:29:56.189Z,79.73
2023-05-16T06:32:22.895Z,80.98
2023-05-16T06:34:49.597Z,81.40
2023-05-16T06:37:16.317Z,82.29
2023-05-16T06:39:43.005Z,82.56
2023-05-16T06:42:11.085Z,82.58
2023-05-16T06:44:37.921Z,81.86
2023-05-16T06:47:05.029Z,82.44
2023-05-16T06:49:31.760Z,82.82
2023-05-16T06:51:58.531Z,84.31
2023-05-16T06:54:25.314Z,84.66
2023-05-16T06:56:52.004Z,84.38
2023-05-16T06:59:18.710Z,83.97
2023-05-16T07:01:45.585Z,84.63
2023-05-16T07:04:12.492Z,84.95
2023-05-16T07:06:39.327Z,85.36
2023-05-16T07:09:06.049Z,85.82
2023-05-16T07:11:32.743Z,85.46
2023-05-16T07:13:59.415Z,84.96
2023-05-16T07:16:28.561Z,85.43
2023-05-16T07:18:55.522Z,85.15
2023-05-16T07:21:22.260Z,85.98
2023-05-16T07:23:49.166Z,86.44
2023-05-16T07:26:18.838Z,86.31
2023-05-16T07:28:45.565Z,86.62
2023-05-16T07:31:12.337Z,86.25
2023-05-16T07:33:39.041Z,86.21
2023-05-16T07:36:15.928Z,85.30
2023-05-16T07:38:43.896Z,84.46
2023-05-16T07:41:10.787Z,82.97
2023-05-16T07:43:37.733Z,82.71
2023-05-16T07:46:05.245Z,81.34
2023-05-16T07:48:32.279Z,81.07
2023-05-16T07:50:59.328Z,81.14
2023-05-16T07:53:26.042Z,80.93
2023-05-16T07:55:52.943Z,81.73
2023-05-16T07:58:19.872Z,80.32
2023-05-16T08:00:46.751Z,80.01
2023-05-16T08:03:13.752Z,80.34
2023-05-16T08:05:40.656Z,80.92
2023-05-16T08:08:07.514Z,80.24
2023-05-16T08:10:34.254Z,79.81
2023-05-16T08:13:01.186Z,80.07
2023-05-16T08:15:28.453Z,79.96
2023-05-16T08:17:58.667Z,79.86
2023-05-16T08:20:26.176Z,79.76
2023-05-16T08:22:53.162Z,79.56
2023-05-16T08:25:20.593Z,79.64
2023-05-16T08:27:49.693Z,79.49
2023-05-16T08:30:16.648Z,79.49
2023-05-16T08:32:43.743Z,80.04
2023-05-16T08:35:11.306Z,80.55
2023-05-16T08:37:38.083Z,79.93
2023-05-16T08:40:08.332Z,79.59
2023-05-16T08:42:35.620Z,79.82
2023-05-16T08:45:03.032Z,80.23
2023-05-16T08:47:31.713Z,79.87
2023-05-16T08:49:59.195Z,80.28
2023-05-16T08:52:31.252Z,80.01
2023-05-16T08:55:09.978Z,80.71
2023-05-16T08:57:38.452Z,81.26
2023-05-16T09:00:12.066Z,80.98
2023-05-16T09:02:44.630Z,81.82
2023-05-16T09:05:13.901Z,80.76
2023-05-16T09:07:41.645Z,80.48
2023-05-16T09:10:08.718Z,80.63
2023-05-16T09:12:35.887Z,80.86
2023-05-16T09:15:04.656Z,81.43
2023-05-16T09:17:39.933Z,81.24
2023-05-16T09:20:21.650Z,80.36
2023-05-16T09:22:56.033Z,81.41
2023-05-16T09:27:58.013Z,80.16
2023-05-16T09:30:33.545Z,79.55
2023-05-16T09:33:00.489Z,79.95
2023-05-16T09:35:43.255Z,80.06
2023-05-16T09:38:18.197Z,79.77
2023-05-16T09:40:45.346Z,80.50
2023-05-16T09:43:16.519Z,79.65
2023-05-16T09:45:48.194Z,80.00
2023-05-16T09:48:15.931Z,79.34
2023-05-16T09:50:49.267Z,78.61
2023-05-16T09:53:16.048Z,78.13
2023-05-16T09:55:42.788Z,78.37
2023-05-16T09:58:09.492Z,78.57
2023-05-16T10:00:38.040Z,77.83
2023-05-16T10:03:06.049Z,78.06
2023-05-16T10:05:33.734Z,78.02
2023-05-16T10:08:02.748Z,77.18
2023-05-16T10:10:29.904Z,76.36
2023-05-16T10:12:59.236Z,76.01
2023-05-16T10:15:26.669Z,76.60
2023-05-16T10:17:57.238Z,75.81
2023-05-16T10:20:24.218Z,76.51
2023-05-16T10:22:53.228Z,74.78
2023-05-16T10:25:29.873Z,74.03
2023-05-16T10:27:57.003Z,74.07
2023-05-16T10:30:23.825Z,73.52
2023-05-16T10:32:51.929Z,73.17
2023-05-16T10:35:19.941Z,74.27
2023-05-16T10:37:46.978Z,72.16
2023-05-16T10:40:14.169Z,71.05
2023-05-16T10:43:03.913Z,70.31
2023-05-16T10:45:31.277Z,70.40
2023-05-16T10:48:10.024Z,69.78
2023-05-16T10:50:43.867Z,70.57
2023-05-16T10:53:18.788Z,71.32
2023-05-16T10:55:51.483Z,71.89
2023-05-16T10:58:25.528Z,71.64
2023-05-16T11:01:15.685Z,72.42
2023-05-16T11:04:01.129Z,71.43
2023-05-16T11:06:33.295Z,72.29
2023-05-16T11:09:10.647Z,70.87
2023-05-16T11:11:46.457Z,71.50
2023-05-16T11:14:32.535Z,70.63
2023-05-16T11:17:01.078Z,71.01
2023-05-16T11:19:42.807Z,71.82
2023-05-16T11:22:29.403Z,71.40
2023-05-16T11:24:59.690Z,70.46
2023-05-16T11:27:31.498Z,70.79
2023-05-16T11:30:07.376Z,69.88
2023-05-16T11:32:35.298Z,69.66
2023-05-16T11:35:02.385Z,69.19
2023-05-16T11:37:29.878Z,68.85
2023-05-16T11:40:01.395Z,67.31
2023-05-16T11:42:36.701Z,67.79
2023-05-16T11:45:21.432Z,69.26
2023-05-16T11:47:48.935Z,67.75
2023-05-16T11:50:17.425Z,67.56
2023-05-16T11:52:46.597Z,67.66
2023-05-16T11:55:17.444Z,67.79
2023-05-16T11:57:52.175Z,68.18
2023-05-16T12:00:21.075Z,66.92
2023-05-16T12:02:51.156Z,67.33
2023-05-16T12:05:19.034Z,67.52
2023-05-16T12:07:46.864Z,67.43
2023-05-16T12:10:15.178Z,67.74
2023-05-16T12:12:44.909Z,67.43
2023-05-16T12:15:12.292Z,67.23
2023-05-16T12:17:40.471Z,67.51
2023-05-16T12:20:14.203Z,67.38
2023-05-16T12:22:41.567Z,65.88
2023-05-16T12:25:26.675Z,65.35
2023-05-16T12:28:01.558Z,65.22
2023-05-16T12:30:30.074Z,65.17
2023-05-16T12:33:08.517Z,62.59
2023-05-16T12:35:37.302Z,64.56
2023-05-16T12:38:05.626Z,64.49
2023-05-16T12:40:32.473Z,63.05
2023-05-16T12:42:59.261Z,63.35
2023-05-16T12:45:29.016Z,63.09
2023-05-16T12:47:55.920Z,62.67
2023-05-16T12:50:22.991Z,62.24
2023-05-16T12:52:54.042Z,63.10
2023-05-16T12:55:22.283Z,62.34
2023-05-16T12:57:50.167Z,59.86
2023-05-16T13:00:19.827Z,60.16
2023-05-16T13:02:48.699Z,59.59
2023-05-16T13:05:15.925Z,58.79
2023-05-16T13:07:42.724Z,58.13
2023-05-16T13:10:15.795Z,55.94
2023-05-16T13:12:42.594Z,56.46
2023-05-16T13:15:11.644Z,55.83
2023-05-16T13:17:39.565Z,55.82
2023-05-16T13:20:09.813Z,55.67
2023-05-16T13:22:37.132Z,55.43
2023-05-16T13:25:04.657Z,55.45
2023-05-16T13:27:32.286Z,54.48
2023-05-16T13:29:59.350Z,54.19
2023-05-16T13:32:26.595Z,53.07
2023-05-16T13:34:53.490Z,52.86
2023-05-16T13:37:20.469Z,52.67
2023-05-16T13:39:47.257Z,53.33
2023-05-16T13:42:16.462Z,51.01
2023-05-16T13:44:44.755Z,53.26
2023-05-16T13:47:11.739Z,53.19
2023-05-16T13:49:38.910Z,53.97
2023-05-16T13:52:06.356Z,54.51
2023-05-16T13:54:33.584Z,53.56
2023-05-16T13:57:01.573Z,55.08
2023-05-16T13:59:55.290Z,54.73
2023-05-16T14:02:15.203Z,54.83
2023-05-16T14:04:41.922Z,54.91
2023-05-16T14:07:08.739Z,55.34
2023-05-16T14:09:39.043Z,55.01
2023-05-16T14:12:07.268Z,54.99
2023-05-16T14:14:37.389Z,55.26
2023-05-16T14:17:04.257Z,55.51
2023-05-16T14:19:31.410Z,55.21
2023-05-16T14:21:58.455Z,55.39
2023-05-16T14:24:25.317Z,55.14
2023-05-16T14:26:58.017Z,55.40
2023-05-16T14:29:25.714Z,54.96
2023-05-16T14:31:52.976Z,55.08
2023-05-16T14:34:19.856Z,54.44
2023-05-16T14:36:46.750Z,54.95
2023-05-16T14:39:14.155Z,55.98
2023-05-16T14:41:40.950Z,55.78
2023-05-16T14:44:07.684Z,56.24
2023-05-16T14:46:34.437Z,56.16
2023-05-16T14:49:01.244Z,54.81
2023-05-16T14:51:28.030Z,55.65
2023-05-16T14:53:54.793Z,56.12
2023-05-16T14:56:22.028Z,55.53
2023-05-16T14:58:48.737Z,54.93
2023-05-16T15:01:16.574Z,54.65
2023-05-16T15:03:54.583Z,53.45
2023-05-16T15:06:23.496Z,53.79
2023-05-16T15:08:50.801Z,51.99
2023-05-16T15:11:17.557Z,50.67
2023-05-16T15:13:44.337Z,52.14
2023-05-16T15:16:11.188Z,52.09
2023-05-16T15:18:38.155Z,51.17
2023-05-16T15:21:04.889Z,50.83
2023-05-16T15:23:31.737Z,49.40
2023-05-16T15:25:58.503Z,49.99
2023-05-16T15:28:25.333Z,50.72
2023-05-16T15:30:52.192Z,50.29
2023-05-16T15:33:19.064Z,50.50
2023-05-16T15:35:46.084Z,51.15
2023-05-16T15:38:13.083Z,49.64
2023-05-16T15:40:39.781Z,47.18
2023-05-16T15:43:06.553Z,46.86
2023-05-16T15:45:33.284Z,47.42
2023-05-16T15:48:00.199Z,47.97
2023-05-16T15:50:26.986Z,47.79
2023-05-16T15:52:53.674Z,47.05
2023-05-16T15:55:20.413Z,47.54
2023-05-16T15:57:47.133Z,46.59
2023-05-16T16:00:14.345Z,46.09
2023-05-16T16:02:42.903Z,46.21
2023-05-16T16:05:09.885Z,45.89
2023-05-16T16:07:36.633Z,44.59
2023-05-16T16:10:03.444Z,45.86
2023-05-16T16:12:32.213Z,45.29
2023-05-16T16:14:59.012Z,45.39
2023-05-16T16:17:25.900Z,45.49
2023-05-16T16:19:52.953Z,45.15
2023-05-16T16:22:22.254Z,46.13
2023-05-16T16:24:49.391Z,45.42
2023-05-16T16:27:16.678Z,44.71
2023-05-16T16:29:43.396Z,44.19
2023-05-16T16:32:10.157Z,44.64
2023-05-16T16:34:36.902Z,43.33
2023-05-16T16:37:04.129Z,43.03
2023-05-16T16:39:33.085Z,42.87
2023-05-16T16:42:00.162Z,44.09
2023-05-16T16:44:27.107Z,43.76
2023-05-16T16:46:54.969Z,43.01
2023-05-16T16:49:21.794Z,44.13
2023-05-16T16:51:49.985Z,43.59
2023-05-16T16:54:16.776Z,43.34
2023-05-16T16:56:43.734Z,42.20
2023-05-16T16:59:11.446Z,43.21
2023-05-16T17:01:38.256Z,43.31
2023-05-16T17:04:05.094Z,43.33
2023-05-16T17:06:31.812Z,43.44
2023-05-16T17:09:03.392Z,44.42
2023-05-16T17:11:30.873Z,43.73
2023-05-16T17:14:00.923Z,44.56
2023-05-16T17:16:29.119Z,45.03
2023-05-16T17:18:56.348Z,44.73
2023-05-16T17:21:23.126Z,44.87
2023-05-16T17:23:51.063Z,45.80
2023-05-16T17:26:17.899Z,45.29
2023-05-16T17:28:45.719Z,45.42
2023-05-16T17:31:12.682Z,44.49
2023-05-16T17:33:39.379Z,43.77
2023-05-16T17:36:07.392Z,43.30
2023-05-16T17:38:35.754Z,43.91
2023-05-16T17:41:02.617Z,43.92
2023-05-16T17:43:29.979Z,43.69
2023-05-16T17:45:56.956Z,43.72
2023-05-16T17:48:23.766Z,43.59
2023-05-16T17:50:50.597Z,44.32
2023-05-16T17:53:17.426Z,44.02
2023-05-16T17:55:44.150Z,44.18
2023-05-16T17:58:10.994Z,44.36
2023-05-16T18:00:38.398Z,44.67
2023-05-16T18:03:06.351Z,43.66
2023-05-16T18:05:33.270Z,44.47
2023-05-16T18:08:00.147Z,44.41
2023-05-16T18:10:33.815Z,44.38
2023-05-16T18:13:06.842Z,44.70
2023-05-16T18:15:35.449Z,44.19
2023-05-16T18:18:02.219Z,44.43
2023-05-16T18:20:29.104Z,43.93
2023-05-16T18:22:55.885Z,44.33
2023-05-16T18:25:22.647Z,44.21
2023-05-16T18:27:49.519Z,44.59
2023-05-16T18:30:16.496Z,44.55
2023-05-16T18:32:43.517Z,44.90
2023-05-16T18:35:10.494Z,45.89
2023-05-16T18:37:37.377Z,46.53
2023-05-16T18:40:04.863Z,46.53
2023-05-16T18:42:34.389Z,46.09
2023-05-16T18:45:01.177Z,45.59
2023-05-16T18:47:28.058Z,45.53
2023-05-16T18:49:55.066Z,45.60
2023-05-16T18:52:21.788Z,48.11
2023-05-16T18:54:48.594Z,46.97
2023-05-16T18:57:15.374Z,47.02
2023-05-16T18:59:43.300Z,46.83
2023-05-16T19:02:10.082Z,46.23
2023-05-16T19:04:36.975Z,47.67
2023-05-16T19:07:05.181Z,49.45
2023-05-16T19:09:32.721Z,50.85
2023-05-16T19:11:59.461Z,51.33
2023-05-16T19:14:27.920Z,52.52
2023-05-16T19:16:54.699Z,53.08
2023-05-16T19:19:21.764Z,53.62
2023-05-16T19:21:48.844Z,53.30
2023-05-16T19:24:23.303Z,53.27
2023-05-16T19:26:50.238Z,52.98
2023-05-16T19:29:16.923Z,52.91
2023-05-16T19:31:43.904Z,52.65
2023-05-16T19:34:10.698Z,53.63
2023-05-16T19:36:38.162Z,53.77
2023-05-16T19:39:05.604Z,54.11
2023-05-16T19:41:32.409Z,53.40
2023-05-16T19:43:59.233Z,54.60
2023-05-16T19:46:25.981Z,55.24
2023-05-16T19:48:52.797Z,55.18
2023-05-16T19:51:29.505Z,55.33
2023-05-16T19:54:04.403Z,55.93
2023-05-16T19:56:31.216Z,56.45
2023-05-16T19:58:57.999Z,56.79
2023-05-16T20:01:24.700Z,56.21
2023-05-16T20:03:51.668Z,56.72
2023-05-16T20:06:21.698Z,56.53
2023-05-16T20:08:48.580Z,58.53
2023-05-16T20:11:15.559Z,58.07
2023-05-16T20:13:42.375Z,58.35
2023-05-16T20:16:09.123Z,58.35
2023-05-16T20:18:36.371Z,58.34
2023-05-16T20:21:03.316Z,59.11
2023-05-16T20:23:30.133Z,58.93
2023-05-16T20:25:56.930Z,58.60
2023-05-16T20:28:23.742Z,59.48
2023-05-16T20:30:50.795Z,59.42
2023-05-16T20:33:20.133Z,59.18
2023-05-16T20:35:47.310Z,58.91
2023-05-16T20:38:14.123Z,58.81
2023-05-16T20:40:41.202Z,58.89
2023-05-16T20:43:08.039Z,58.84
2023-05-16T20:45:34.831Z,58.56
2023-05-16T20:48:01.611Z,58.62
2023-05-16T20:50:28.404Z,59.22
2023-05-16T20:52:55.249Z,59.74
2023-05-16T20:55:21.967Z,60.07
2023-05-16T20:57:48.841Z,60.17
2023-05-16T21:00:17.966Z,60.27
2023-05-16T21:02:44.805Z,61.01
2023-05-16T21:05:23.951Z,60.91
2023-05-16T21:07:52.182Z,60.57
2023-05-16T21:10:18.887Z,60.78
2023-05-16T21:12:45.763Z,60.94
2023-05-16T21:15:12.515Z,61.04
2023-05-16T21:17:40.973Z,61.09
2023-05-16T21:20:08.416Z,60.45
2023-05-16T21:22:35.566Z,60.96
2023-05-16T21:25:02.390Z,62.69
2023-05-16T21:27:29.212Z,62.17
2023-05-16T21:29:55.951Z,61.91
2023-05-16T21:32:22.837Z,62.05
2023-05-16T21:34:49.569Z,62.46
2023-05-16T21:37:16.921Z,62.38
2023-05-16T21:39:43.688Z,62.66
2023-05-16T21:42:10.574Z,62.25
2023-05-16T21:44:37.349Z,62.57
2023-05-16T21:47:04.427Z,63.06
2023-05-16T21:49:31.589Z,62.31
2023-05-16T21:51:58.599Z,63.45
2023-05-16T21:54:25.634Z,62.53
2023-05-16T21:56:52.374Z,63.20
2023-05-16T21:59:19.075Z,62.96
2023-05-16T22:01:48.065Z,63.53
2023-05-16T22:04:15.081Z,63.73
2023-05-16T22:06:41.913Z,63.44
2023-05-16T22:09:09.145Z,63.50
2023-05-16T22:11:36.091Z,63.97
2023-05-16T22:14:02.941Z,64.37
2023-05-16T22:16:29.703Z,63.20
2023-05-16T22:18:56.665Z,64.07
2023-05-16T22:21:23.501Z,64.54
2023-05-16T22:23:50.417Z,64.24
2023-05-16T22:26:17.167Z,64.60
2023-05-16T22:28:44.043Z,64.53
2023-05-16T22:31:10.808Z,63.98
2023-05-16T22:33:37.793Z,64.32
2023-05-16T22:36:04.985Z,65.15
2023-05-16T22:38:31.924Z,64.99
2023-05-16T22:40:58.765Z,64.06
2023-05-16T22:43:25.532Z,64.46
2023-05-16T22:45:52.374Z,64.43
2023-05-16T22:48:19.236Z,64.75
2023-05-16T22:50:46.093Z,64.51
2023-05-16T22:53:13.029Z,64.44
2023-05-16T22:55:39.848Z,64.96
2023-05-16T22:58:07.022Z,65.05
2023-05-16T23:00:33.889Z,64.96
2023-05-16T23:03:00.811Z,64.92
2023-05-16T23:05:28.070Z,64.40
2023-05-16T23:07:55.134Z,64.24
2023-05-16T23:10:21.882Z,64.73
2023-05-16T23:12:48.622Z,64.79
2023-05-16T23:15:15.573Z,64.75
2023-05-16T23:17:42.381Z,64.85
2023-05-16T23:20:09.300Z,64.28
2023-05-16T23:22:36.141Z,64.86
2023-05-16T23:25:03.099Z,65.16
2023-05-16T23:27:29.916Z,65.34
2023-05-16T23:29:56.795Z,65.75
2023-05-16T23:32:23.632Z,65.17
2023-05-16T23:34:50.658Z,65.04
2023-05-16T23:37:17.506Z,64.90
2023-05-16T23:39:44.382Z,64.86
2023-05-16T23:42:11.150Z,65.42
2023-05-16T23:44:39.608Z,64.62
2023-05-16T23:47:06.580Z,64.80
2023-05-16T23:49:33.299Z,64.79
2023-05-16T23:52:00.266Z,65.58
2023-05-16T23:54:27.198Z,65.72
2023-05-16T23:56:53.988Z,65.31
2023-05-16T23:59:20.905Z,65.52
